createdAt,value
2022-11-09T00:01:44.880Z,6.30
2022-11-09T00:04:46.299Z,8.00
2022-11-09T00:07:47.675Z,6.07
2022-11-09T00:10:49.058Z,6.93
2022-11-09T00:13:50.502Z,6.73
2022-11-09T00:16:51.900Z,6.63
2022-11-09T00:19:53.379Z,6.10
2022-11-09T00:22:54.815Z,6.10
2022-11-09T00:26:00.796Z,7.97
2022-11-09T00:29:02.185Z,7.87
2022-11-09T00:32:03.734Z,6.70
2022-11-09T00:35:05.578Z,7.20
2022-11-09T00:38:09.748Z,6.73
2022-11-09T00:41:13.055Z,6.43
2022-11-09T00:44:14.504Z,6.93
2022-11-09T00:47:15.915Z,7.73
2022-11-09T00:50:17.450Z,7.90
2022-11-09T00:53:20.775Z,8.57
2022-11-09T00:56:22.820Z,8.40
2022-11-09T00:59:24.322Z,9.30
2022-11-09T01:02:25.898Z,6.50
2022-11-09T01:05:27.415Z,9.00
2022-11-09T01:08:30.097Z,7.53
2022-11-09T01:11:31.503Z,7.80
2022-11-09T01:14:32.915Z,6.83
2022-11-09T01:17:34.363Z,8.57
2022-11-09T01:20:39.988Z,6.30
2022-11-09T01:23:42.847Z,6.03
2022-11-09T01:26:44.332Z,9.20
2022-11-09T01:29:47.672Z,7.77
2022-11-09T01:32:49.056Z,9.33
2022-11-09T01:35:50.463Z,6.70
2022-11-09T01:38:52.014Z,7.73
2022-11-09T01:41:53.463Z,7.50
2022-11-09T01:45:20.629Z,6.27
2022-11-09T01:48:36.393Z,6.73
2022-11-09T01:51:42.276Z,6.83
2022-11-09T01:54:52.051Z,6.83
2022-11-09T01:58:02.837Z,8.33
2022-11-09T02:01:05.314Z,7.07
2022-11-09T02:04:12.847Z,8.10
2022-11-09T02:07:14.648Z,6.23
2022-11-09T02:10:28.813Z,6.47
2022-11-09T02:13:33.741Z,12.17
2022-11-09T02:16:41.772Z,5.60
2022-11-09T02:19:43.344Z,8.07
2022-11-09T02:22:45.081Z,7.77
2022-11-09T02:26:09.292Z,7.53
2022-11-09T02:29:16.016Z,5.87
2022-11-09T02:32:21.599Z,8.70
2022-11-09T02:35:23.458Z,6.53
2022-11-09T02:38:25.025Z,5.57
2022-11-09T02:41:27.620Z,6.80
2022-11-09T02:44:30.380Z,5.87
2022-11-09T02:47:31.873Z,5.93
2022-11-09T02:50:33.523Z,8.13
2022-11-09T02:53:35.025Z,9.23
2022-11-09T02:56:36.715Z,7.20
2022-11-09T02:59:38.149Z,6.80
2022-11-09T03:02:41.592Z,8.80
2022-11-09T03:05:44.067Z,7.50
2022-11-09T03:08:46.982Z,5.90
2022-11-09T03:11:50.431Z,7.20
2022-11-09T03:14:52.035Z,7.17
2022-11-09T03:17:53.789Z,6.67
2022-11-09T03:21:01.979Z,6.67
2022-11-09T03:24:03.599Z,8.00
2022-11-09T03:27:05.211Z,8.47
2022-11-09T03:30:07.655Z,6.93
2022-11-09T03:33:10.268Z,6.27
2022-11-09T03:36:13.465Z,9.20
2022-11-09T03:39:14.997Z,6.53
2022-11-09T03:42:16.457Z,6.10
2022-11-09T03:45:18.309Z,4.93
2022-11-09T03:48:19.710Z,9.10
2022-11-09T03:51:21.225Z,5.33
2022-11-09T03:54:22.609Z,6.60
2022-11-09T03:57:24.024Z,7.53
2022-11-09T04:00:25.577Z,7.13
2022-11-09T04:03:26.996Z,5.40
2022-11-09T04:06:28.497Z,7.00
2022-11-09T04:09:29.900Z,7.13
2022-11-09T04:12:31.640Z,5.00
2022-11-09T04:15:33.071Z,4.87
2022-11-09T04:18:34.552Z,5.03
2022-11-09T04:21:36.141Z,4.07
2022-11-09T04:24:37.524Z,5.10
2022-11-09T04:27:38.933Z,5.30
2022-11-09T04:30:40.546Z,3.90
2022-11-09T04:33:41.928Z,5.33
2022-11-09T04:36:44.309Z,6.03
2022-11-09T04:39:45.713Z,5.53
2022-11-09T04:42:47.113Z,4.60
2022-11-09T04:45:48.568Z,3.93
2022-11-09T04:48:50.200Z,4.43
2022-11-09T04:51:51.683Z,6.53
2022-11-09T04:54:53.092Z,6.77
2022-11-09T04:57:54.485Z,6.37
2022-11-09T05:01:03.210Z,6.83
2022-11-09T05:04:04.760Z,5.67
2022-11-09T05:07:06.343Z,5.70
2022-11-09T05:10:08.053Z,8.07
2022-11-09T05:13:11.817Z,5.87
2022-11-09T05:16:13.271Z,5.00
2022-11-09T05:19:14.766Z,5.43
2022-11-09T05:22:34.869Z,4.40
2022-11-09T05:25:36.309Z,5.90
2022-11-09T05:28:38.148Z,5.53
2022-11-09T05:31:40.365Z,6.17
2022-11-09T05:34:41.776Z,5.53
2022-11-09T05:37:46.911Z,5.23
2022-11-09T05:40:52.293Z,6.90
2022-11-09T05:43:53.759Z,5.03
2022-11-09T05:46:55.158Z,7.37
2022-11-09T05:49:56.543Z,6.00
2022-11-09T05:53:01.945Z,4.40
2022-11-09T05:56:09.276Z,5.17
2022-11-09T05:59:10.913Z,4.67
2022-11-09T06:02:12.389Z,3.60
2022-11-09T06:05:14.504Z,5.80
2022-11-09T06:08:15.936Z,4.00
2022-11-09T06:11:23.670Z,4.83
2022-11-09T06:14:25.872Z,3.33
2022-11-09T06:17:27.288Z,3.10
2022-11-09T06:20:28.853Z,5.43
2022-11-09T06:23:30.813Z,3.73
2022-11-09T06:26:32.325Z,5.67
2022-11-09T06:29:33.771Z,3.30
2022-11-09T06:32:35.227Z,4.33
2022-11-09T06:35:36.970Z,3.70
2022-11-09T06:38:38.830Z,6.90
2022-11-09T06:41:44.610Z,3.70
2022-11-09T06:44:48.571Z,3.40
2022-11-09T06:47:49.952Z,3.57
2022-11-09T06:50:51.360Z,5.27
2022-11-09T06:53:53.360Z,4.87
2022-11-09T06:56:55.254Z,3.50
2022-11-09T06:59:56.667Z,4.27
2022-11-09T07:02:58.185Z,10.17
2022-11-09T07:06:05.308Z,4.20
2022-11-09T07:09:07.073Z,2.47
2022-11-09T07:12:09.857Z,4.33
2022-11-09T07:15:12.157Z,3.17
2022-11-09T07:18:13.595Z,4.53
2022-11-09T07:21:15.116Z,1.97
2022-11-09T07:24:16.634Z,3.47
2022-11-09T07:27:18.027Z,5.07
2022-11-09T07:30:19.611Z,5.37
2022-11-09T07:33:22.681Z,3.50
2022-11-09T07:36:24.380Z,1.50
2022-11-09T07:39:25.787Z,2.60
2022-11-09T07:42:27.206Z,2.17
2022-11-09T07:45:30.195Z,2.67
2022-11-09T07:48:31.917Z,2.13
2022-11-09T07:51:34.793Z,1.77
2022-11-09T07:54:36.389Z,3.77
2022-11-09T07:57:37.900Z,3.40
2022-11-09T08:00:41.237Z,3.77
2022-11-09T08:03:42.699Z,2.30
2022-11-09T08:06:44.132Z,2.17
2022-11-09T08:09:45.610Z,1.43
2022-11-09T08:12:55.170Z,1.63
2022-11-09T08:15:56.714Z,1.30
2022-11-09T08:18:58.118Z,1.60
2022-11-09T08:22:00.306Z,1.73
2022-11-09T08:25:01.695Z,1.70
2022-11-09T08:28:03.840Z,1.57
2022-11-09T08:31:07.933Z,1.10
2022-11-09T08:34:14.131Z,1.47
2022-11-09T08:37:16.344Z,12.73
2022-11-09T08:40:21.323Z,12.70
2022-11-09T08:43:22.760Z,8.23
2022-11-09T08:46:24.251Z,4.37
2022-11-09T08:49:25.670Z,3.17
2022-11-09T08:52:27.200Z,4.97
2022-11-09T08:55:29.453Z,4.20
2022-11-09T08:58:30.913Z,3.57
2022-11-09T09:01:32.401Z,2.17
2022-11-09T09:04:33.812Z,2.20
2022-11-09T09:07:35.214Z,1.93
2022-11-09T09:10:36.626Z,2.40
2022-11-09T09:13:43.055Z,2.17
2022-11-09T09:16:45.395Z,3.90
2022-11-09T09:19:49.975Z,2.37
2022-11-09T09:22:51.803Z,2.33
2022-11-09T09:25:56.408Z,2.73
2022-11-09T09:29:00.061Z,2.23
2022-11-09T09:32:01.569Z,5.43
2022-11-09T09:35:03.439Z,3.83
2022-11-09T09:38:04.973Z,6.70
2022-11-09T09:41:07.201Z,2.20
2022-11-09T09:44:25.124Z,2.13
2022-11-09T09:47:49.661Z,2.00
2022-11-09T09:50:59.965Z,3.00
2022-11-09T09:54:23.131Z,2.47
2022-11-09T09:57:28.839Z,1.30
2022-11-09T10:00:31.744Z,4.10
2022-11-09T10:03:33.229Z,2.40
2022-11-09T10:06:49.809Z,1.70
2022-11-09T10:10:09.815Z,1.60
2022-11-09T10:13:17.096Z,1.53
2022-11-09T10:16:33.770Z,1.70
2022-11-09T10:20:05.235Z,2.20
2022-11-09T10:23:12.271Z,4.20
2022-11-09T10:26:22.899Z,2.57
2022-11-09T10:29:34.857Z,2.47
2022-11-09T10:32:36.561Z,1.80
2022-11-09T10:35:45.042Z,2.27
2022-11-09T10:38:50.848Z,2.57
2022-11-09T10:42:11.514Z,2.77
2022-11-09T10:45:40.894Z,2.07
2022-11-09T10:49:19.221Z,1.90
2022-11-09T10:52:47.340Z,1.10
2022-11-09T10:56:20.445Z,1.73
2022-11-09T10:59:52.035Z,3.10
2022-11-09T11:03:17.943Z,2.10
2022-11-09T11:06:38.316Z,1.13
2022-11-09T11:10:16.808Z,2.97
2022-11-09T11:13:36.890Z,2.33
2022-11-09T11:16:56.675Z,3.37
2022-11-09T11:20:29.033Z,2.13
2022-11-09T11:24:16.928Z,1.30
2022-11-09T11:27:42.946Z,4.13
2022-11-09T11:31:04.177Z,1.70
2022-11-09T11:34:53.378Z,3.97
2022-11-09T11:38:37.550Z,2.53
2022-11-09T11:42:14.573Z,2.07
2022-11-09T11:45:42.897Z,1.90
2022-11-09T11:49:31.116Z,2.20
2022-11-09T11:53:06.482Z,1.73
2022-11-09T11:56:34.695Z,2.30
2022-11-09T12:00:15.998Z,1.93
2022-11-09T12:03:51.729Z,1.93
2022-11-09T12:07:41.189Z,2.50
2022-11-09T12:11:08.836Z,1.57
2022-11-09T12:15:11.153Z,1.80
2022-11-09T12:18:45.695Z,2.70
2022-11-09T12:22:24.418Z,1.80
2022-11-09T12:25:56.997Z,1.93
2022-11-09T12:29:21.816Z,2.00
2022-11-09T12:32:59.088Z,3.37
2022-11-09T12:36:25.966Z,2.30
2022-11-09T12:39:50.223Z,2.10
2022-11-09T12:43:31.741Z,2.53
2022-11-09T12:47:00.695Z,2.90
2022-11-09T12:50:23.371Z,2.47
2022-11-09T12:53:43.362Z,3.37
2022-11-09T12:57:10.804Z,3.13
2022-11-09T13:00:33.773Z,1.73
2022-11-09T13:03:56.797Z,3.17
2022-11-09T13:07:26.236Z,2.23
2022-11-09T13:10:46.582Z,1.60
2022-11-09T13:14:21.690Z,3.73
2022-11-09T13:17:55.578Z,1.90
2022-11-09T13:21:21.868Z,2.30
2022-11-09T13:24:59.671Z,3.80
2022-11-09T13:28:28.852Z,3.10
2022-11-09T13:32:05.113Z,2.37
2022-11-09T13:35:40.294Z,3.87
2022-11-09T13:39:37.932Z,1.73
2022-11-09T13:43:09.872Z,2.67
2022-11-09T13:46:36.198Z,1.87
2022-11-09T13:49:56.196Z,1.93
2022-11-09T13:53:53.205Z,3.27
2022-11-09T13:57:13.618Z,1.37
2022-11-09T14:00:33.584Z,3.83
2022-11-09T14:03:53.542Z,3.30
2022-11-09T14:07:25.469Z,2.23
2022-11-09T14:10:56.054Z,2.37
2022-11-09T14:14:18.922Z,2.43
2022-11-09T14:18:07.843Z,1.87
2022-11-09T14:21:37.898Z,2.83
2022-11-09T14:24:57.855Z,3.53
2022-11-09T14:28:27.173Z,2.53
2022-11-09T14:31:47.069Z,2.73
2022-11-09T14:35:13.815Z,2.17
2022-11-09T14:38:36.016Z,3.77
2022-11-09T14:41:57.032Z,2.20
2022-11-09T14:45:17.983Z,2.70
2022-11-09T14:48:43.306Z,3.97
2022-11-09T14:52:05.647Z,1.67
2022-11-09T14:55:26.032Z,2.70
2022-11-09T14:58:47.898Z,3.77
2022-11-09T15:02:11.907Z,3.87
2022-11-09T15:05:39.704Z,3.47
2022-11-09T15:09:14.869Z,2.83
2022-11-09T15:12:36.048Z,3.47
2022-11-09T15:15:56.412Z,3.63
2022-11-09T15:19:39.670Z,4.50
2022-11-09T15:23:05.814Z,1.70
2022-11-09T15:26:39.079Z,3.00
2022-11-09T15:29:59.253Z,2.23
2022-11-09T15:33:19.375Z,2.87
2022-11-09T15:36:44.894Z,2.97
2022-11-09T15:40:10.332Z,2.60
2022-11-09T15:43:30.231Z,4.70
2022-11-09T15:46:52.495Z,3.17
2022-11-09T15:50:27.250Z,4.10
2022-11-09T15:53:48.413Z,2.43
2022-11-09T15:57:14.709Z,4.73
2022-11-09T16:00:35.061Z,1.80
2022-11-09T16:03:54.931Z,1.90
2022-11-09T16:07:16.562Z,4.20
2022-11-09T16:10:40.228Z,3.30
2022-11-09T16:14:01.488Z,2.93
2022-11-09T16:17:21.705Z,3.37
2022-11-09T16:20:42.145Z,3.40
2022-11-09T16:24:02.395Z,1.83
2022-11-09T16:27:48.544Z,10.97
2022-11-09T16:31:02.903Z,1.77
2022-11-09T16:34:23.352Z,3.43
2022-11-09T16:37:44.607Z,3.83
2022-11-09T16:41:05.262Z,4.03
2022-11-09T16:44:25.557Z,3.13
2022-11-09T16:47:50.425Z,5.13
2022-11-09T16:51:10.936Z,3.77
2022-11-09T16:54:31.594Z,2.87
2022-11-09T16:57:53.787Z,3.80
2022-11-09T17:01:16.479Z,3.10
2022-11-09T17:04:41.697Z,5.47
2022-11-09T17:08:01.595Z,2.50
2022-11-09T17:11:23.071Z,3.73
2022-11-09T17:14:43.279Z,4.60
2022-11-09T17:18:03.535Z,7.90
2022-11-09T17:21:28.608Z,3.40
2022-11-09T17:24:49.410Z,6.67
2022-11-09T17:28:09.437Z,5.13
2022-11-09T17:31:30.261Z,6.83
2022-11-09T17:34:50.888Z,7.03
2022-11-09T17:38:11.161Z,3.90
2022-11-09T17:41:31.502Z,3.37
2022-11-09T17:44:51.700Z,4.13
2022-11-09T17:48:11.673Z,3.43
2022-11-09T17:51:32.401Z,1.67
2022-11-09T17:54:52.641Z,2.60
2022-11-09T17:58:12.806Z,2.13
2022-11-09T18:01:39.406Z,3.13
2022-11-09T18:05:01.440Z,1.87
2022-11-09T18:08:21.761Z,4.17
2022-11-09T18:11:42.157Z,3.63
2022-11-09T18:15:02.766Z,2.83
2022-11-09T18:18:23.691Z,2.77
2022-11-09T18:21:47.429Z,1.97
2022-11-09T18:25:07.500Z,2.60
2022-11-09T18:28:27.625Z,2.30
2022-11-09T18:31:47.761Z,2.60
2022-11-09T18:35:07.776Z,3.90
2022-11-09T18:38:29.804Z,2.03
2022-11-09T18:41:52.022Z,2.50
2022-11-09T18:45:12.278Z,1.43
2022-11-09T18:48:32.571Z,2.27
2022-11-09T18:51:52.578Z,2.60
2022-11-09T18:55:12.812Z,3.47
2022-11-09T18:58:33.408Z,4.27
2022-11-09T19:01:53.390Z,2.93
2022-11-09T19:05:13.257Z,5.17
2022-11-09T19:08:52.340Z,4.23
2022-11-09T19:12:12.481Z,1.83
2022-11-09T19:15:38.503Z,2.93
2022-11-09T19:18:58.647Z,4.03
2022-11-09T19:22:19.066Z,2.33
2022-11-09T19:25:39.350Z,3.33
2022-11-09T19:28:59.337Z,3.47
2022-11-09T19:32:19.378Z,3.10
2022-11-09T19:35:39.272Z,2.57
2022-11-09T19:39:01.037Z,3.57
2022-11-09T19:42:21.307Z,3.17
2022-11-09T19:45:41.941Z,8.73
2022-11-09T19:49:03.627Z,3.67
2022-11-09T19:52:23.630Z,3.47
2022-11-09T19:55:44.206Z,7.67
2022-11-09T19:59:05.569Z,7.87
2022-11-09T20:02:25.830Z,3.83
2022-11-09T20:05:45.996Z,3.60
2022-11-09T20:09:06.322Z,4.57
2022-11-09T20:12:44.784Z,4.73
2022-11-09T20:16:07.488Z,3.47
2022-11-09T20:19:27.533Z,2.57
2022-11-09T20:22:47.498Z,2.93
2022-11-09T20:26:09.448Z,6.30
2022-11-09T20:29:29.596Z,3.70
2022-11-09T20:32:49.694Z,4.03
2022-11-09T20:36:09.626Z,5.47
2022-11-09T20:39:29.769Z,5.20
2022-11-09T20:42:49.593Z,4.93
2022-11-09T20:46:15.965Z,3.83
2022-11-09T20:49:36.085Z,3.37
2022-11-09T20:52:55.840Z,5.57
2022-11-09T20:56:16.872Z,4.17
2022-11-09T20:59:37.041Z,4.70
2022-11-09T21:02:57.518Z,4.23
2022-11-09T21:06:18.317Z,6.27
2022-11-09T21:09:38.401Z,4.57
2022-11-09T21:12:58.335Z,4.27
2022-11-09T21:16:19.830Z,4.40
2022-11-09T21:19:39.806Z,4.70
2022-11-09T21:23:11.743Z,5.13
2022-11-09T21:26:50.424Z,5.37
2022-11-09T21:30:11.754Z,4.43
2022-11-09T21:33:31.724Z,6.60
2022-11-09T21:36:51.653Z,4.37
2022-11-09T21:40:11.844Z,5.70
2022-11-09T21:43:31.866Z,4.87
2022-11-09T21:46:51.744Z,5.00
2022-11-09T21:50:12.991Z,4.60
2022-11-09T21:53:36.909Z,4.57
2022-11-09T21:56:57.403Z,5.33
2022-11-09T22:00:18.245Z,7.17
2022-11-09T22:03:39.616Z,7.43
2022-11-09T22:06:59.705Z,4.70
2022-11-09T22:10:19.552Z,7.80
2022-11-09T22:13:59.035Z,6.20
2022-11-09T22:17:19.044Z,6.17
2022-11-09T22:20:57.062Z,4.83
2022-11-09T22:24:17.168Z,5.70
2022-11-09T22:27:37.090Z,4.13
2022-11-09T22:31:00.585Z,5.67
2022-11-09T22:34:20.788Z,5.33
2022-11-09T22:37:40.506Z,4.20
2022-11-09T22:41:01.887Z,3.93
2022-11-09T22:44:21.965Z,6.17
2022-11-09T22:47:41.803Z,5.57
2022-11-09T22:51:02.765Z,5.53
2022-11-09T22:54:22.865Z,4.37
2022-11-09T22:57:42.913Z,6.40
2022-11-09T23:01:13.297Z,5.03
2022-11-09T23:04:33.023Z,4.27
2022-11-09T23:07:54.768Z,4.33
2022-11-09T23:11:17.367Z,5.63
2022-11-09T23:14:55.923Z,7.03
2022-11-09T23:18:34.728Z,5.13
2022-11-09T23:21:54.705Z,5.73
2022-11-09T23:25:33.112Z,4.93
2022-11-09T23:28:53.603Z,4.17
2022-11-09T23:32:13.909Z,6.70
2022-11-09T23:35:34.564Z,3.33
2022-11-09T23:38:54.627Z,3.97
2022-11-09T23:42:14.520Z,6.23
2022-11-09T23:45:35.361Z,5.23
2022-11-09T23:48:55.544Z,9.00
2022-11-09T23:52:16.279Z,3.83
2022-11-09T23:55:37.237Z,6.07
2022-11-09T23:58:57.353Z,4.60
